Redwodcityfire — BOAT9 — position and weather

sailwx.info

Track history (hours):
 
Tides and Currents Weather Stations Pressure Air Temp Water Temp Dewpoint Dewpoint Depression Visibility Wind Speed Wind Dir Waves Ship Positions

Redwodcityfire

Last reported at 2017-Oct-14 21:34 UTC. Time now 2017-Oct-17 04:21 UTC.
Position N 37°34' W 122°13'.

; draft 4 m.

Type: SAR. MMSI: 338167484.

Date/timePositionNaut miles runAvg speedWind from/ knotsBaromVisibWave heightAir tempDewpointWater temp
2017-Oct-14 21:34N 37°34' W 122°13'119.2
2017-Oct-14 21:30N 37°35' W 122°14'1326.2
2017-Oct-14 21:01N 37°46' W 122°22'4 7.8
2017-Oct-14 20:30N 37°49' W 122°25'0 0.0
2017-Oct-14 20:00N 37°49' W 122°25'1 2.2
2017-Oct-14 19:31N 37°49' W 122°26'3 6.0
2017-Oct-14 19:00N 37°52' W 122°29'2 3.3
2017-Oct-14 18:31N 37°50' W 122°28'1 2.8
2017-Oct-14 18:00N 37°51' W 122°29'612.1
2017-Oct-14 17:31N 37°48' W 122°23'1427.0
2017-Oct-14 17:00N 37°35' W 122°15'  
2017-Oct-07 22:08N 37°31' W 122°12'1 1.4
2017-Oct-07 21:39N 37°31' W 122°12'321.1
2017-Oct-07 21:30N 37°34' W 122°14'4 7.2
2017-Oct-07 21:00N 37°30' W 122°13'0 0.0
2017-Oct-07 20:05N 37°30' W 122°13'0 0.0
2017-Oct-07 19:44N 37°30' W 122°13'0 0.0
2017-Oct-07 19:15N 37°30' W 122°13'0 0.0
2017-Oct-07 19:00N 37°30' W 122°13'0 0.0
2017-Oct-07 18:29N 37°30' W 122°13'0 0.1
2017-Oct-07 17:45N 37°30' W 122°13'0 0.1
2017-Oct-07 17:01N 37°30' W 122°13'0 0.2
2017-Oct-07 16:20N 37°30' W 122°13'1 0.0
2017-Oct-06 19:59N 37°31' W 122°12'0 0.0
2017-Oct-06 01:49N 37°31' W 122°12'411.9
2017-Oct-06 01:30N 37°34' W 122°13'1326.1
2017-Oct-06 01:01N 37°45' W 122°22'5 9.6
2017-Oct-06 00:30N 37°48' W 122°26'1 1.2
2017-Oct-06 00:00N 37°49' W 122°25'1 1.9
2017-Oct-05 23:31N 37°49' W 122°27'0 0.1
2017-Oct-05 23:01N 37°49' W 122°27'0 0.0
2017-Oct-05 22:31N 37°49' W 122°27'0 0.0
2017-Oct-05 22:01N 37°49' W 122°27'0 0.0
2017-Oct-05 21:31N 37°49' W 122°27'0 0.0
2017-Oct-05 21:01N 37°49' W 122°27'0 0.7
2017-Oct-05 20:30N 37°49' W 122°26'0 0.3
2017-Oct-05 20:00N 37°49' W 122°26'0 0.7
2017-Oct-05 19:30N 37°48' W 122°26'1 1.1
2017-Oct-05 19:00N 37°49' W 122°25'1224.2
2017-Oct-05 18:31N 37°38' W 122°18'  
Track history (hours):
 
Tides and Currents Weather Stations Pressure Air Temp Water Temp Dewpoint Dewpoint Depression Visibility Wind Speed Wind Dir Waves Ship Positions

Redwodcityfire

Last reported at 2017-Oct-14 21:34 UTC. Time now 2017-Oct-17 04:21 UTC.
Position N 37°34' W 122°13'.

; draft 4 m.

Type: SAR. MMSI: 338167484.

Date/timePositionNaut miles runAvg speedWind from/ knotsBaromVisibWave heightAir tempDewpointWater temp
2017-Oct-14 21:34N 37°34' W 122°13'119.2
2017-Oct-14 21:30N 37°35' W 122°14'1326.2
2017-Oct-14 21:01N 37°46' W 122°22'4 7.8
2017-Oct-14 20:30N 37°49' W 122°25'0 0.0
2017-Oct-14 20:00N 37°49' W 122°25'1 2.2
2017-Oct-14 19:31N 37°49' W 122°26'3 6.0
2017-Oct-14 19:00N 37°52' W 122°29'2 3.3
2017-Oct-14 18:31N 37°50' W 122°28'1 2.8
2017-Oct-14 18:00N 37°51' W 122°29'612.1
2017-Oct-14 17:31N 37°48' W 122°23'1427.0
2017-Oct-14 17:00N 37°35' W 122°15'  
2017-Oct-07 22:08N 37°31' W 122°12'1 1.4
2017-Oct-07 21:39N 37°31' W 122°12'321.1
2017-Oct-07 21:30N 37°34' W 122°14'4 7.2
2017-Oct-07 21:00N 37°30' W 122°13'0 0.0
2017-Oct-07 20:05N 37°30' W 122°13'0 0.0
2017-Oct-07 19:44N 37°30' W 122°13'0 0.0
2017-Oct-07 19:15N 37°30' W 122°13'0 0.0
2017-Oct-07 19:00N 37°30' W 122°13'0 0.0
2017-Oct-07 18:29N 37°30' W 122°13'0 0.1
2017-Oct-07 17:45N 37°30' W 122°13'0 0.1
2017-Oct-07 17:01N 37°30' W 122°13'0 0.2
2017-Oct-07 16:20N 37°30' W 122°13'1 0.0
2017-Oct-06 19:59N 37°31' W 122°12'0 0.0
2017-Oct-06 01:49N 37°31' W 122°12'411.9
2017-Oct-06 01:30N 37°34' W 122°13'1326.1
2017-Oct-06 01:01N 37°45' W 122°22'5 9.6
2017-Oct-06 00:30N 37°48' W 122°26'1 1.2
2017-Oct-06 00:00N 37°49' W 122°25'1 1.9
2017-Oct-05 23:31N 37°49' W 122°27'0 0.1
2017-Oct-05 23:01N 37°49' W 122°27'0 0.0
2017-Oct-05 22:31N 37°49' W 122°27'0 0.0
2017-Oct-05 22:01N 37°49' W 122°27'0 0.0
2017-Oct-05 21:31N 37°49' W 122°27'0 0.0
2017-Oct-05 21:01N 37°49' W 122°27'0 0.7
2017-Oct-05 20:30N 37°49' W 122°26'0 0.3
2017-Oct-05 20:00N 37°49' W 122°26'0 0.7
2017-Oct-05 19:30N 37°48' W 122°26'1 1.1
2017-Oct-05 19:00N 37°49' W 122°25'1224.2
2017-Oct-05 18:31N 37°38' W 122°18'  

Dump ship's entire track history